📊 Raw Sensor Data
Showing records 47551 to 47575 of 85,087 total
| ID | Distance (ft) | Battery V | Battery A | Int Temp (°F) | Int Humid (%) | Ext Temp (°F) | Solar V | RSSI | SNR | Time Stamp |
|---|---|---|---|---|---|---|---|---|---|---|
| 37549 | -- | 3.85 | -5 | 58 | 43 | 59 | 0.10 | -69 | 8 | 04/11/2025 09:30 PM |
| 37548 | -- | 3.85 | -5 | 58 | 44 | 59 | 0.10 | -69 | 8 | 04/11/2025 09:16 PM |
| 37547 | -- | 3.85 | -5 | 59 | 44 | 59 | 0.00 | -69 | 8 | 04/11/2025 09:00 PM |
| 37546 | -- | 3.85 | -5 | 60 | 44 | 60 | 0.00 | -71 | 8 | 04/11/2025 08:45 PM |
| 37545 | -- | 3.85 | -5 | 61 | 45 | 61 | 0.00 | -70 | 7 | 04/11/2025 08:30 PM |
| 37544 | -- | 3.85 | -9 | 63 | 48 | 63 | 1.20 | -71 | 7 | 04/11/2025 07:45 PM |
| 37543 | -- | 3.85 | 0 | 65 | 49 | 64 | 4.50 | -69 | 8 | 04/11/2025 07:30 PM |
| 37542 | -- | 3.73 | 0 | 66 | 51 | 64 | 4.50 | -70 | 9 | 04/11/2025 07:15 PM |
| 37541 | -- | 3.89 | 6 | 69 | 52 | 66 | 4.50 | -71 | 9 | 04/11/2025 07:00 PM |
| 37540 | -- | 3.90 | 0 | 76 | 49 | 69 | 4.50 | -70 | 9 | 04/11/2025 06:45 PM |
| 37539 | -- | 3.84 | 0 | 80 | 46 | 75 | 5.10 | -71 | 9 | 04/11/2025 06:30 PM |
| 37538 | -- | 4.04 | 0 | 78 | 48 | 73 | 5.10 | -71 | 9 | 04/11/2025 06:15 PM |
| 37537 | -- | 3.84 | 0 | 83 | 45 | 78 | 5.10 | -70 | 9 | 04/11/2025 06:00 PM |
| 37536 | -- | 3.84 | 0 | 83 | 46 | 76 | 5.10 | -71 | 9 | 04/11/2025 05:45 PM |
| 37535 | -- | 4.06 | 0 | 83 | 47 | 75 | 5.10 | -70 | 8 | 04/11/2025 05:31 PM |
| 37534 | -- | 3.98 | 0 | 85 | 47 | 79 | 5.10 | -69 | 9 | 04/11/2025 05:15 PM |
| 37533 | -- | 3.84 | 0 | 87 | 47 | 79 | 5.10 | -70 | 9 | 04/11/2025 05:00 PM |
| 37532 | -- | 3.83 | 0 | 94 | 43 | 81 | 5.10 | -71 | 9 | 04/11/2025 04:45 PM |
| 37531 | -- | 3.88 | 0 | 93 | 43 | 85 | 5.10 | -70 | 9 | 04/11/2025 04:30 PM |
| 37530 | -- | 4.07 | 0 | 95 | 41 | 87 | 5.10 | -69 | 9 | 04/11/2025 04:16 PM |
| 37529 | -- | 3.83 | 0 | 93 | 41 | 85 | 5.10 | -69 | 9 | 04/11/2025 04:00 PM |
| 37528 | -- | 3.83 | 0 | 92 | 42 | 84 | 5.10 | -70 | 9 | 04/11/2025 03:45 PM |
| 37527 | -- | 3.83 | 0 | 93 | 40 | 86 | 5.10 | -71 | 9 | 04/11/2025 03:30 PM |
| 37526 | -- | 3.83 | 0 | 91 | 41 | 82 | 5.10 | -70 | 9 | 04/11/2025 03:15 PM |
| 37525 | -- | 3.83 | 0 | 91 | 42 | 82 | 5.10 | -71 | 9 | 04/11/2025 03:01 PM |